createdAt,value
2023-02-03T00:00:56.097Z,-1.82
2023-02-03T00:04:01.646Z,-1.79
2023-02-03T00:07:08.636Z,-1.85
2023-02-03T00:10:21.500Z,-1.82
2023-02-03T00:13:28.352Z,-1.78
2023-02-03T00:16:33.802Z,-1.82
2023-02-03T00:19:40.074Z,-1.93
2023-02-03T00:22:45.522Z,-2.16
2023-02-03T00:25:54.648Z,-2.19
2023-02-03T00:29:02.606Z,-2.21
2023-02-03T00:32:09.927Z,-2.30
2023-02-03T00:35:15.674Z,-2.30
2023-02-03T00:38:21.938Z,-2.21
2023-02-03T00:41:34.436Z,-2.31
2023-02-03T00:44:40.642Z,-2.31
2023-02-03T00:47:46.626Z,-2.33
2023-02-03T00:50:52.961Z,-2.31
2023-02-03T00:53:58.355Z,-2.35
2023-02-03T00:57:07.556Z,-2.34
2023-02-03T01:00:15.143Z,-2.29
2023-02-03T01:03:21.630Z,-2.28
2023-02-03T01:06:29.353Z,-2.28
2023-02-03T01:09:37.448Z,-2.26
2023-02-03T01:12:45.811Z,-2.31
2023-02-03T01:15:52.048Z,-2.38
2023-02-03T01:18:59.398Z,-2.31
2023-02-03T01:22:07.625Z,-2.37
2023-02-03T01:25:13.191Z,-2.26
2023-02-03T01:28:22.467Z,-2.37
2023-02-03T01:31:32.024Z,-2.57
2023-02-03T01:34:38.573Z,-2.55
2023-02-03T01:37:44.697Z,-2.48
2023-02-03T01:40:50.984Z,-2.50
2023-02-03T01:44:02.660Z,-2.36
2023-02-03T01:47:30.254Z,-2.37
2023-02-03T01:50:41.032Z,-2.28
2023-02-03T01:53:48.298Z,-2.53
2023-02-03T01:57:04.922Z,-2.69
2023-02-03T02:00:16.830Z,-2.74
2023-02-03T02:03:29.689Z,-2.67
2023-02-03T02:06:36.029Z,-2.68
2023-02-03T02:09:42.054Z,-2.60
2023-02-03T02:12:48.686Z,-2.53
2023-02-03T02:16:10.260Z,-2.57
2023-02-03T02:20:06.109Z,-2.53
2023-02-03T02:24:25.643Z,-2.49
2023-02-03T02:28:20.151Z,-2.45
2023-02-03T02:32:12.845Z,-2.44
2023-02-03T02:35:41.611Z,-2.48
2023-02-03T02:39:04.117Z,-2.50
2023-02-03T02:42:24.239Z,-2.50
2023-02-03T02:45:42.163Z,-2.43
2023-02-03T02:49:00.672Z,-2.49
2023-02-03T02:52:11.815Z,-2.53
2023-02-03T02:55:27.982Z,-2.54
2023-02-03T02:58:42.472Z,-2.60
2023-02-03T03:01:48.751Z,-2.65
2023-02-03T03:04:58.540Z,-2.77
2023-02-03T03:08:06.209Z,-2.77
2023-02-03T03:11:12.886Z,-2.81
2023-02-03T03:14:26.713Z,-2.88
2023-02-03T03:17:43.607Z,-2.90
2023-02-03T03:21:06.126Z,-2.99
2023-02-03T03:24:22.041Z,-2.95
2023-02-03T03:27:35.938Z,-2.87
2023-02-03T03:30:43.172Z,-2.96
2023-02-03T03:33:51.043Z,-2.94
2023-02-03T03:37:14.292Z,-2.97
2023-02-03T03:40:30.021Z,-2.93
2023-02-03T03:43:46.750Z,-2.94
2023-02-03T03:47:03.720Z,-2.85
2023-02-03T03:50:17.574Z,-2.72
2023-02-03T03:53:31.917Z,-2.68
2023-02-03T03:56:59.769Z,-2.66
2023-02-03T04:00:12.628Z,-2.64
2023-02-03T04:03:27.373Z,-2.55
2023-02-03T04:06:32.892Z,-2.50
2023-02-03T04:09:43.097Z,-2.42
2023-02-03T04:12:48.693Z,-2.33
2023-02-03T04:15:55.227Z,-2.21
2023-02-03T04:19:00.595Z,-2.16
2023-02-03T04:22:06.795Z,-2.16
2023-02-03T04:25:14.957Z,-2.14
2023-02-03T04:28:21.137Z,-2.22
2023-02-03T04:31:26.588Z,-2.26
2023-02-03T04:34:32.904Z,-2.29
2023-02-03T04:37:38.353Z,-2.28
2023-02-03T04:40:47.688Z,-2.27
2023-02-03T04:43:53.132Z,-2.17
2023-02-03T04:46:59.607Z,-2.13
2023-02-03T04:50:05.320Z,-2.11
2023-02-03T04:53:11.842Z,-2.11
2023-02-03T04:56:20.227Z,-2.05
2023-02-03T04:59:26.679Z,-2.01
2023-02-03T05:02:33.384Z,-2.03
2023-02-03T05:05:39.889Z,-2.13
2023-02-03T05:08:45.289Z,-2.16
2023-02-03T05:11:54.335Z,-2.16
2023-02-03T05:14:59.697Z,-2.15
2023-02-03T05:18:05.935Z,-2.09
2023-02-03T05:21:12.134Z,-2.05
2023-02-03T05:24:18.313Z,-2.02
2023-02-03T05:27:26.773Z,-1.97
2023-02-03T05:30:33.013Z,-1.95
2023-02-03T05:33:38.408Z,-1.92
2023-02-03T05:36:44.906Z,-1.84
2023-02-03T05:39:50.289Z,-1.81
2023-02-03T05:42:56.558Z,-1.77
2023-02-03T05:46:04.135Z,-1.75
2023-02-03T05:49:10.524Z,-1.68
2023-02-03T05:52:16.044Z,-1.63
2023-02-03T05:55:22.523Z,-1.61
2023-02-03T05:58:30.761Z,-1.62
2023-02-03T06:01:38.598Z,-1.64
2023-02-03T06:04:44.196Z,-1.77
2023-02-03T06:07:50.702Z,-1.62
2023-02-03T06:11:01.642Z,-1.73
2023-02-03T06:14:11.067Z,-1.79
2023-02-03T06:17:16.451Z,-1.79
2023-02-03T06:20:23.896Z,-2.05
2023-02-03T06:23:29.569Z,-1.84
2023-02-03T06:26:35.923Z,-1.83
2023-02-03T06:29:44.261Z,-1.83
2023-02-03T06:32:51.780Z,-1.77
2023-02-03T06:35:57.453Z,-1.74
2023-02-03T06:39:03.700Z,-1.71
2023-02-03T06:42:09.574Z,-1.65
2023-02-03T06:45:19.161Z,-1.60
2023-02-03T06:48:24.553Z,-1.53
2023-02-03T06:51:30.798Z,-1.46
2023-02-03T06:54:36.897Z,-1.40
2023-02-03T06:57:52.045Z,-1.38
2023-02-03T07:01:01.808Z,-1.38
2023-02-03T07:04:09.071Z,-1.37
2023-02-03T07:07:14.844Z,-1.33
2023-02-03T07:10:21.675Z,-1.34
2023-02-03T07:13:27.280Z,-1.32
2023-02-03T07:16:37.720Z,-1.31
2023-02-03T07:19:45.730Z,-1.33
2023-02-03T07:22:56.861Z,-1.28
2023-02-03T07:26:04.686Z,-1.27
2023-02-03T07:29:11.100Z,-1.30
2023-02-03T07:32:19.285Z,-1.29
2023-02-03T07:35:26.108Z,-1.35
2023-02-03T07:38:32.247Z,-1.38
2023-02-03T07:41:38.492Z,-1.32
2023-02-03T07:44:45.228Z,-1.23
2023-02-03T07:47:54.364Z,-1.14
2023-02-03T07:50:59.713Z,-1.06
2023-02-03T07:54:09.098Z,-1.00
2023-02-03T07:57:14.474Z,-1.09
2023-02-03T08:00:22.180Z,-1.00
2023-02-03T08:03:30.642Z,-1.00
2023-02-03T08:06:37.690Z,-1.04
2023-02-03T08:09:43.075Z,-1.11
2023-02-03T08:12:49.324Z,-1.09
2023-02-03T08:15:55.033Z,-1.14
2023-02-03T08:19:04.276Z,-1.09
2023-02-03T08:22:16.023Z,-1.05
2023-02-03T08:25:22.868Z,-1.03
2023-02-03T08:28:28.466Z,-1.03
2023-02-03T08:31:35.186Z,-0.96
2023-02-03T08:34:44.931Z,-0.90
2023-02-03T08:37:51.416Z,-0.78
2023-02-03T08:40:56.807Z,-0.75
2023-02-03T08:44:03.284Z,-0.79
2023-02-03T08:47:10.359Z,-0.80
2023-02-03T08:50:20.122Z,-0.67
2023-02-03T08:53:25.539Z,-0.55
2023-02-03T08:56:32.052Z,-0.49
2023-02-03T08:59:44.156Z,-0.64
2023-02-03T09:02:50.708Z,-0.73
2023-02-03T09:06:00.900Z,-0.77
2023-02-03T09:09:07.836Z,-0.75
2023-02-03T09:12:13.608Z,-0.66
2023-02-03T09:15:20.128Z,-0.66
2023-02-03T09:18:25.513Z,-0.70
2023-02-03T09:21:40.090Z,-0.72
2023-02-03T09:24:51.901Z,-0.68
2023-02-03T09:27:58.571Z,-0.74
2023-02-03T09:31:05.264Z,-0.75
2023-02-03T09:34:12.502Z,-0.72
2023-02-03T09:37:21.064Z,-0.75
2023-02-03T09:40:36.515Z,-0.75
2023-02-03T09:43:52.509Z,-0.69
2023-02-03T09:47:05.067Z,-0.65
2023-02-03T09:50:23.019Z,-0.62
2023-02-03T09:53:41.189Z,-0.69
2023-02-03T09:56:52.530Z,-0.70
2023-02-03T10:00:02.852Z,-0.74
2023-02-03T10:03:22.640Z,-1.03
2023-02-03T10:06:39.261Z,-0.84
2023-02-03T10:10:06.980Z,-0.80
2023-02-03T10:13:34.821Z,-0.79
2023-02-03T10:17:07.664Z,-0.83
2023-02-03T10:20:22.874Z,-0.83
2023-02-03T10:23:38.368Z,-0.81
2023-02-03T10:26:47.672Z,-0.87
2023-02-03T10:30:03.875Z,-0.98
2023-02-03T10:33:16.496Z,-0.86
2023-02-03T10:36:25.462Z,-0.84
2023-02-03T10:39:39.920Z,-0.82
2023-02-03T10:43:08.003Z,-0.84
2023-02-03T10:46:14.465Z,-0.89
2023-02-03T10:49:21.850Z,-0.88
2023-02-03T10:52:34.223Z,-0.94
2023-02-03T10:55:40.324Z,-0.92
2023-02-03T10:58:56.761Z,-0.96
2023-02-03T11:02:02.602Z,-0.99
2023-02-03T11:05:25.173Z,-1.01
2023-02-03T11:08:34.025Z,-0.98
2023-02-03T11:11:42.132Z,-1.04
2023-02-03T11:14:53.750Z,-1.08
2023-02-03T11:18:00.095Z,-1.04
2023-02-03T11:21:13.928Z,-1.26
2023-02-03T11:24:27.001Z,-1.04
2023-02-03T11:27:36.652Z,-0.99
2023-02-03T11:30:46.365Z,-0.95
2023-02-03T11:33:59.156Z,-0.93
2023-02-03T11:37:31.413Z,-0.95
2023-02-03T11:40:38.700Z,-0.98
2023-02-03T11:43:45.023Z,-0.97
2023-02-03T11:47:00.582Z,-0.92
2023-02-03T11:50:32.476Z,-0.97
2023-02-03T11:54:08.072Z,-0.95
2023-02-03T11:57:36.965Z,-0.88
2023-02-03T12:01:04.232Z,-0.91
2023-02-03T12:05:04.577Z,-0.89
2023-02-03T12:08:31.760Z,-0.90
2023-02-03T12:12:05.481Z,-0.92
2023-02-03T12:15:50.385Z,-0.86
2023-02-03T12:19:17.389Z,-0.83
2023-02-03T12:22:45.201Z,-0.76
2023-02-03T12:26:12.229Z,-0.77
2023-02-03T12:29:28.170Z,-0.82
2023-02-03T12:32:49.981Z,-0.89
2023-02-03T12:36:14.850Z,-0.92
2023-02-03T12:39:45.845Z,-0.96
2023-02-03T12:43:00.924Z,-0.93
2023-02-03T12:46:20.519Z,-0.92
2023-02-03T12:49:42.723Z,-0.91
2023-02-03T12:52:56.661Z,-0.95
2023-02-03T12:56:12.891Z,-0.95
2023-02-03T12:59:26.801Z,-0.96
2023-02-03T13:02:45.655Z,-1.00
2023-02-03T13:06:02.049Z,-0.97
2023-02-03T13:09:28.612Z,-1.06
2023-02-03T13:12:48.013Z,-1.14
2023-02-03T13:15:59.902Z,-1.18
2023-02-03T13:19:18.272Z,-1.18
2023-02-03T13:22:26.887Z,-1.16
2023-02-03T13:25:59.806Z,-1.15
2023-02-03T13:29:38.629Z,-1.26
2023-02-03T13:33:42.917Z,-1.26
2023-02-03T13:37:28.984Z,-1.28
2023-02-03T13:40:54.535Z,-1.27
2023-02-03T13:44:02.691Z,-1.28
2023-02-03T13:47:24.560Z,-1.29
2023-02-03T13:50:34.054Z,-1.31
2023-02-03T13:53:46.388Z,-1.27
2023-02-03T13:57:03.031Z,-1.27
2023-02-03T14:00:53.526Z,-1.24
2023-02-03T14:04:02.301Z,-1.27
2023-02-03T14:07:36.809Z,-1.33
2023-02-03T14:10:42.440Z,-1.36
2023-02-03T14:13:48.669Z,-1.42
2023-02-03T14:16:56.686Z,-1.42
2023-02-03T14:20:39.917Z,-1.51
2023-02-03T14:23:57.375Z,-1.45
2023-02-03T14:27:19.657Z,-1.47
2023-02-03T14:30:25.126Z,-1.56
2023-02-03T14:33:54.819Z,-1.48
2023-02-03T14:37:25.003Z,-1.57
2023-02-03T14:40:51.436Z,-1.59
2023-02-03T14:44:16.840Z,-1.59
2023-02-03T14:47:51.166Z,-1.60
2023-02-03T14:51:17.721Z,-1.69
2023-02-03T14:54:53.685Z,-1.60
2023-02-03T14:58:06.901Z,-2.21
2023-02-03T15:01:29.865Z,-1.71
2023-02-03T15:04:35.566Z,-1.58
2023-02-03T15:07:49.181Z,-1.53
2023-02-03T15:10:57.769Z,-1.50
2023-02-03T15:14:26.733Z,-1.56
2023-02-03T15:17:33.063Z,-1.42
2023-02-03T15:20:43.380Z,-1.40
2023-02-03T15:23:52.323Z,-1.52
2023-02-03T15:27:01.290Z,-1.42
2023-02-03T15:30:22.027Z,-1.42
2023-02-03T15:33:29.434Z,-1.28
2023-02-03T15:36:47.423Z,-1.19
2023-02-03T15:40:05.631Z,-1.21
2023-02-03T15:43:24.795Z,-1.06
2023-02-03T15:46:42.074Z,-1.06
2023-02-03T15:49:54.896Z,-0.98
2023-02-03T15:53:12.913Z,-0.92
2023-02-03T15:56:35.484Z,-0.92
2023-02-03T15:59:57.084Z,-0.88
2023-02-03T16:03:08.513Z,-0.95
2023-02-03T16:06:28.407Z,-0.92
2023-02-03T16:09:37.020Z,-0.82
2023-02-03T16:12:43.411Z,-0.67
2023-02-03T16:16:05.951Z,-0.56
2023-02-03T16:19:20.588Z,-0.52
2023-02-03T16:22:33.389Z,-0.55
2023-02-03T16:25:39.738Z,-0.44
2023-02-03T16:29:01.588Z,-0.32
2023-02-03T16:32:46.390Z,-0.35
2023-02-03T16:36:07.577Z,-0.21
2023-02-03T16:39:31.951Z,-0.26
2023-02-03T16:42:59.134Z,-0.15
2023-02-03T16:46:21.165Z,-0.14
2023-02-03T16:49:44.896Z,-0.10
2023-02-03T16:52:51.191Z,-0.13
2023-02-03T16:55:59.892Z,0.05
2023-02-03T16:59:06.472Z,0.02
2023-02-03T17:02:14.368Z,-0.18
2023-02-03T17:05:24.281Z,-0.14
2023-02-03T17:08:29.766Z,-0.18
2023-02-03T17:11:36.052Z,-0.12
2023-02-03T17:14:41.703Z,-0.15
2023-02-03T17:17:48.006Z,-0.09
2023-02-03T17:20:58.874Z,-0.11
2023-02-03T17:24:05.762Z,-0.31
2023-02-03T17:27:11.392Z,-0.27
2023-02-03T17:30:18.879Z,-0.46
2023-02-03T17:33:24.313Z,-0.30
2023-02-03T17:36:33.284Z,-0.18
2023-02-03T17:56:29.355Z,-0.08
2023-02-03T17:59:35.692Z,-0.05
2023-02-03T18:02:43.339Z,-0.06
2023-02-03T18:05:54.107Z,-0.14
2023-02-03T18:09:04.096Z,-0.20
2023-02-03T18:12:10.236Z,-0.13
2023-02-03T18:15:16.806Z,-0.29
2023-02-03T18:18:23.292Z,-0.17
2023-02-03T18:21:32.428Z,-0.14
2023-02-03T18:24:40.700Z,-0.07
2023-02-03T18:27:47.486Z,-0.04
2023-02-03T18:30:53.535Z,-0.03
2023-02-03T18:34:05.639Z,0.02
2023-02-03T18:37:11.705Z,0.01
2023-02-03T18:40:21.285Z,0.12
2023-02-03T18:43:26.803Z,0.11
2023-02-03T18:46:35.526Z,0.04
2023-02-03T18:49:41.326Z,0.02
2023-02-03T18:52:48.118Z,0.03
2023-02-03T18:55:56.536Z,-0.01
2023-02-03T18:59:02.745Z,-0.04
2023-02-03T19:02:08.152Z,-0.07
2023-02-03T19:05:14.740Z,-0.24
2023-02-03T19:08:20.623Z,-0.44
2023-02-03T19:11:29.901Z,-0.45
2023-02-03T19:14:35.731Z,-0.53
2023-02-03T19:17:42.630Z,-0.91
2023-02-03T19:20:48.512Z,-0.87
2023-02-03T19:23:54.855Z,-0.77
2023-02-03T19:27:03.046Z,-0.95
2023-02-03T19:30:10.233Z,-0.95
2023-02-03T19:33:16.377Z,-1.04
2023-02-03T19:36:22.815Z,-1.15
2023-02-03T19:39:28.322Z,-1.09
2023-02-03T19:42:37.347Z,-1.31
2023-02-03T19:45:42.829Z,-1.29
2023-02-03T19:48:49.712Z,-1.30
2023-02-03T19:51:55.491Z,-1.17
2023-02-03T19:55:01.941Z,-1.09
2023-02-03T19:58:10.137Z,-0.98
2023-02-03T20:01:16.536Z,-1.17
2023-02-03T20:04:22.836Z,-1.22
2023-02-03T20:07:32.707Z,-1.12
2023-02-03T20:10:38.579Z,-1.11
2023-02-03T20:13:47.829Z,-1.06
2023-02-03T20:16:53.298Z,-1.04
2023-02-03T20:19:59.900Z,-1.08
2023-02-03T20:23:05.547Z,-1.06
2023-02-03T20:26:14.236Z,-1.17
2023-02-03T20:29:22.581Z,-0.96
2023-02-03T20:32:29.375Z,-0.82
2023-02-03T20:35:34.913Z,-0.80
2023-02-03T20:38:41.333Z,-0.90
2023-02-03T20:41:47.182Z,-0.83
2023-02-03T20:44:57.007Z,-0.94
2023-02-03T20:48:02.839Z,-0.69
2023-02-03T20:51:14.584Z,-0.83
2023-02-03T20:54:22.489Z,-0.68
2023-02-03T20:57:28.756Z,-0.69
2023-02-03T21:00:37.071Z,-0.55
2023-02-03T21:04:04.501Z,-0.65
2023-02-03T21:07:18.277Z,-0.73
2023-02-03T21:10:28.147Z,-0.58
2023-02-03T21:13:38.886Z,-0.73
2023-02-03T21:16:48.188Z,-0.55
2023-02-03T21:19:55.951Z,-0.58
2023-02-03T21:23:02.495Z,-0.59
2023-02-03T21:26:22.248Z,-0.61
2023-02-03T21:29:32.863Z,-0.48
2023-02-03T21:32:44.254Z,-0.38
2023-02-03T21:35:50.534Z,-0.54
2023-02-03T21:38:59.403Z,-0.57
2023-02-03T21:42:43.647Z,-0.40
2023-02-03T21:45:50.063Z,-0.48
2023-02-03T21:49:00.780Z,-0.53
2023-02-03T21:52:06.953Z,-0.43
2023-02-03T21:55:19.233Z,-0.35
2023-02-03T21:58:29.248Z,-0.36
2023-02-03T22:01:40.323Z,-0.76
2023-02-03T22:04:48.448Z,-0.39
2023-02-03T22:07:55.021Z,-0.40
2023-02-03T22:11:00.596Z,-0.43
2023-02-03T22:14:07.297Z,-0.43
2023-02-03T22:17:14.263Z,-0.61
2023-02-03T22:20:23.921Z,-0.32
2023-02-03T22:23:29.427Z,-0.29
2023-02-03T22:26:35.960Z,-0.33
2023-02-03T22:29:41.926Z,-0.22
2023-02-03T22:32:48.342Z,-0.13
2023-02-03T22:35:56.521Z,-0.14
2023-02-03T22:39:02.747Z,-0.35
2023-02-03T22:42:08.356Z,-0.14
2023-02-03T22:45:17.990Z,-0.30
2023-02-03T22:48:24.818Z,-0.11
2023-02-03T22:51:33.795Z,-0.37
2023-02-03T22:54:39.833Z,-0.40
2023-02-03T22:57:46.058Z,-0.36
2023-02-03T23:00:51.537Z,-0.25
2023-02-03T23:03:57.998Z,-0.25
2023-02-03T23:07:06.254Z,-0.25
2023-02-03T23:10:17.531Z,-0.17
2023-02-03T23:13:23.022Z,-0.32
2023-02-03T23:16:29.254Z,-0.32
2023-02-03T23:19:34.700Z,-0.20
2023-02-03T23:22:43.790Z,-0.23
2023-02-03T23:25:49.105Z,-0.40
2023-02-03T23:28:55.304Z,-0.26
2023-02-03T23:32:00.922Z,-0.36
2023-02-03T23:35:23.870Z,-0.37
2023-02-03T23:38:33.528Z,-0.42
2023-02-03T23:41:39.862Z,-0.32
2023-02-03T23:44:45.315Z,-0.25
2023-02-03T23:47:51.710Z,-0.45
2023-02-03T23:50:57.354Z,-0.41
2023-02-03T23:54:06.707Z,-0.51
2023-02-03T23:57:12.147Z,-0.30
